createdAt,value
2018-01-15T00:00:25.156Z,-0.10
2018-01-15T00:03:35.355Z,0.00
2018-01-15T00:06:45.777Z,-0.10
2018-01-15T00:09:56.432Z,-0.10
2018-01-15T00:13:06.627Z,-0.10
2018-01-15T00:16:17.816Z,0.00
2018-01-15T00:19:28.180Z,-0.10
2018-01-15T00:22:39.670Z,-0.10
2018-01-15T00:25:49.936Z,-0.10
2018-01-15T00:28:59.830Z,0.00
2018-01-15T00:32:09.585Z,0.00
2018-01-15T00:35:19.510Z,0.00
2018-01-15T00:38:30.235Z,0.00
2018-01-15T00:41:40.254Z,0.00
2018-01-15T00:44:50.028Z,0.00
2018-01-15T00:47:59.760Z,0.00
2018-01-15T00:51:09.858Z,0.00
2018-01-15T00:54:20.530Z,0.00
2018-01-15T00:57:30.279Z,-0.10
2018-01-15T01:00:40.973Z,-0.20
2018-01-15T01:03:51.739Z,-0.20
2018-01-15T01:07:01.740Z,-0.20
2018-01-15T01:10:11.712Z,-0.30
2018-01-15T01:13:22.293Z,-0.40
2018-01-15T01:16:32.758Z,-0.40
2018-01-15T01:19:42.889Z,-0.50
2018-01-15T01:22:52.753Z,-0.60
2018-01-15T01:26:02.898Z,-0.60
2018-01-15T01:29:13.635Z,-0.80
2018-01-15T01:32:23.909Z,-0.80
2018-01-15T01:35:35.272Z,-0.80
2018-01-15T01:38:45.449Z,-0.80
2018-01-15T01:41:56.011Z,-0.80
2018-01-15T01:45:07.180Z,-0.90
2018-01-15T01:48:17.699Z,-0.90
2018-01-15T01:51:28.536Z,-1.00
2018-01-15T01:54:38.707Z,-1.00
2018-01-15T01:57:49.465Z,-0.90
2018-01-15T02:01:00.618Z,-1.00
2018-01-15T02:04:11.560Z,-1.00
2018-01-15T02:07:21.650Z,-1.00
2018-01-15T02:10:32.726Z,-1.00
2018-01-15T02:13:42.599Z,-1.10
2018-01-15T02:16:52.580Z,-1.10
2018-01-15T02:20:03.374Z,-1.10
2018-01-15T02:23:13.797Z,-1.10
2018-01-15T02:26:23.648Z,-1.00
2018-01-15T02:29:34.471Z,-1.10
2018-01-15T02:32:44.771Z,-1.10
2018-01-15T02:35:55.492Z,-1.20
2018-01-15T02:39:05.343Z,-1.20
2018-01-15T02:42:14.545Z,-1.20
2018-01-15T02:45:24.919Z,-1.20
2018-01-15T02:48:34.905Z,-1.10
2018-01-15T02:51:45.203Z,-1.20
2018-01-15T02:54:55.846Z,-1.20
2018-01-15T02:58:05.671Z,-1.20
2018-01-15T03:01:15.735Z,-1.20
2018-01-15T03:04:26.411Z,-1.20
2018-01-15T03:07:36.412Z,-1.20
2018-01-15T03:10:47.303Z,-1.20
2018-01-15T03:13:57.216Z,-1.20
2018-01-15T03:17:07.361Z,-1.20
2018-01-15T03:20:17.402Z,-1.20
2018-01-15T03:23:27.474Z,-1.30
2018-01-15T03:26:38.145Z,-1.30
2018-01-15T03:29:48.015Z,-1.40
2018-01-15T03:32:57.752Z,-1.40
2018-01-15T03:36:07.680Z,-1.40
2018-01-15T03:39:18.662Z,-1.40
2018-01-15T03:42:28.744Z,-1.40
2018-01-15T03:45:38.595Z,-1.30
2018-01-15T03:48:49.629Z,-1.40
2018-01-15T03:51:59.968Z,-1.40
2018-01-15T03:55:10.321Z,-1.40
2018-01-15T03:58:20.373Z,-1.40
2018-01-15T04:01:30.159Z,-1.40
2018-01-15T04:04:40.966Z,-1.40
2018-01-15T04:07:51.309Z,-1.40
2018-01-15T04:11:01.115Z,-1.40
2018-01-15T04:14:11.639Z,-1.40
2018-01-15T04:17:22.374Z,-1.40
2018-01-15T04:20:32.479Z,-1.40
2018-01-15T04:23:42.424Z,-1.50
2018-01-15T04:26:53.545Z,-1.60
2018-01-15T04:30:04.673Z,-1.50
2018-01-15T04:33:15.035Z,-1.60
2018-01-15T04:36:24.880Z,-1.60
2018-01-15T04:39:34.906Z,-1.50
2018-01-15T04:42:44.917Z,-1.60
2018-01-15T04:45:55.018Z,-1.60
2018-01-15T04:49:04.257Z,-1.60
2018-01-15T04:52:14.983Z,-1.50
2018-01-15T04:55:24.871Z,-1.60
2018-01-15T04:58:34.897Z,-1.60
2018-01-15T05:01:45.695Z,-1.60
2018-01-15T05:04:56.545Z,-1.60
2018-01-15T05:08:06.678Z,-1.60
2018-01-15T05:11:16.757Z,-1.60
2018-01-15T05:14:27.498Z,-1.60
2018-01-15T05:17:37.394Z,-1.60
2018-01-15T05:20:47.679Z,-1.60
2018-01-15T05:23:57.855Z,-1.50
2018-01-15T05:27:07.782Z,-1.60
2018-01-15T05:30:18.639Z,-1.50
2018-01-15T05:33:28.674Z,-1.60
2018-01-15T05:36:39.442Z,-1.50
2018-01-15T05:39:49.582Z,-1.50
2018-01-15T05:42:59.821Z,-1.50
2018-01-15T05:46:11.093Z,-1.50
2018-01-15T05:49:23.602Z,-1.60
2018-01-15T05:52:33.586Z,-1.60
2018-01-15T05:55:44.357Z,-1.50
2018-01-15T05:58:54.326Z,-1.60
2018-01-15T06:02:04.556Z,-1.50
2018-01-15T06:05:15.096Z,-1.50
2018-01-15T06:08:25.721Z,-1.50
2018-01-15T06:11:35.640Z,-1.50
2018-01-15T06:14:45.391Z,-1.50
2018-01-15T06:17:55.426Z,-1.50
2018-01-15T06:21:04.957Z,-1.50
2018-01-15T06:24:15.402Z,-1.60
2018-01-15T06:27:25.483Z,-1.60
2018-01-15T06:30:36.060Z,-1.60
2018-01-15T06:33:46.223Z,-1.60
2018-01-15T06:36:56.902Z,-1.60
2018-01-15T06:40:07.133Z,-1.60
2018-01-15T06:43:17.191Z,-1.70
2018-01-15T06:46:27.365Z,-1.80
2018-01-15T06:49:37.537Z,-1.80
2018-01-15T06:52:47.408Z,-1.70
2018-01-15T06:55:57.312Z,-1.80
2018-01-15T06:59:07.848Z,-1.80
2018-01-15T07:02:17.702Z,-1.80
2018-01-15T07:05:28.381Z,-1.80
2018-01-15T07:08:38.146Z,-1.80
2018-01-15T07:11:48.630Z,-1.80
2018-01-15T07:14:58.707Z,-1.90
2018-01-15T07:18:09.039Z,-1.90
2018-01-15T07:21:18.961Z,-1.90
2018-01-15T07:24:28.939Z,-1.80
2018-01-15T07:27:39.500Z,-1.50
2018-01-15T07:30:49.869Z,-1.50
2018-01-15T07:33:59.794Z,-1.40
2018-01-15T07:37:09.993Z,-1.50
2018-01-15T07:40:20.792Z,-1.50
2018-01-15T07:43:31.091Z,-1.50
2018-01-15T07:46:41.991Z,-1.50
2018-01-15T07:49:52.194Z,-1.50
2018-01-15T07:53:02.810Z,-1.50
2018-01-15T07:56:12.696Z,-1.50
2018-01-15T07:59:23.582Z,-1.40
2018-01-15T08:02:34.266Z,-1.40
2018-01-15T08:05:45.030Z,-1.40
2018-01-15T08:08:54.873Z,-1.30
2018-01-15T08:12:04.836Z,-1.30
2018-01-15T08:15:14.901Z,-1.20
2018-01-15T08:18:24.939Z,-1.20
2018-01-15T08:21:34.924Z,-1.10
2018-01-15T08:24:45.162Z,-1.10
2018-01-15T08:27:55.141Z,-1.00
2018-01-15T08:31:05.226Z,-0.90
2018-01-15T08:34:15.133Z,-0.90
2018-01-15T08:37:25.769Z,-0.60
2018-01-15T08:40:35.973Z,-0.70
2018-01-15T08:43:46.059Z,-0.60
2018-01-15T08:46:56.063Z,-0.50
2018-01-15T08:50:06.614Z,-0.40
2018-01-15T08:53:17.441Z,-0.30
2018-01-15T08:56:27.716Z,-0.30
2018-01-15T08:59:38.314Z,-0.20
2018-01-15T09:02:49.189Z,-0.20
2018-01-15T09:06:00.173Z,-0.10
2018-01-15T09:09:11.503Z,-0.10
2018-01-15T09:12:22.299Z,-0.10
2018-01-15T09:15:32.419Z,0.00
2018-01-15T09:18:42.615Z,0.00
2018-01-15T09:21:52.344Z,0.10
2018-01-15T09:25:02.587Z,0.20
2018-01-15T09:28:13.279Z,0.30
2018-01-15T09:31:23.270Z,0.30
2018-01-15T09:34:34.184Z,0.40
2018-01-15T09:37:44.438Z,0.40
2018-01-15T09:40:55.947Z,0.50
2018-01-15T09:44:06.199Z,0.50
2018-01-15T09:47:16.416Z,0.60
2018-01-15T09:50:26.824Z,0.70
2018-01-15T09:53:37.838Z,0.70
2018-01-15T09:56:48.331Z,0.70
2018-01-15T09:59:58.217Z,0.80
2018-01-15T10:03:08.179Z,0.90
2018-01-15T10:06:18.889Z,0.90
2018-01-15T10:09:29.778Z,1.00
2018-01-15T10:12:40.424Z,1.00
2018-01-15T10:15:51.291Z,1.20
2018-01-15T10:19:01.982Z,1.20
2018-01-15T10:22:12.877Z,1.30
2018-01-15T10:25:23.147Z,1.30
2018-01-15T10:28:33.980Z,1.30
2018-01-15T10:31:44.110Z,1.40
2018-01-15T10:34:55.020Z,1.50
2018-01-15T10:38:05.953Z,1.60
2018-01-15T10:41:16.010Z,1.70
2018-01-15T10:44:26.722Z,1.70
2018-01-15T10:47:36.822Z,1.80
2018-01-15T10:50:47.729Z,1.80
2018-01-15T10:54:00.099Z,1.90
2018-01-15T10:57:10.127Z,1.90
2018-01-15T11:00:26.673Z,2.00
2018-01-15T11:03:37.017Z,2.00
2018-01-15T11:06:47.040Z,2.10
2018-01-15T11:09:57.208Z,2.10
2018-01-15T11:13:07.190Z,2.20
2018-01-15T11:16:18.292Z,2.30
2018-01-15T11:19:28.582Z,2.30
2018-01-15T11:22:39.998Z,2.30
2018-01-15T11:25:50.478Z,2.40
2018-01-15T11:29:02.099Z,2.50
2018-01-15T11:32:12.543Z,2.40
2018-01-15T11:35:22.503Z,2.60
2018-01-15T11:38:33.282Z,2.60
2018-01-15T11:41:44.090Z,2.60
2018-01-15T11:44:55.287Z,2.60
2018-01-15T11:48:05.257Z,2.60
2018-01-15T11:51:15.607Z,2.60
2018-01-15T11:57:37.278Z,2.60
2018-01-15T12:00:47.902Z,2.70
2018-01-15T12:03:58.561Z,2.70
2018-01-15T12:07:09.810Z,2.90
2018-01-15T12:10:20.647Z,2.80
2018-01-15T12:13:31.165Z,3.00
2018-01-15T12:16:41.157Z,3.00
2018-01-15T12:19:51.041Z,2.90
2018-01-15T12:23:01.907Z,3.00
2018-01-15T12:26:11.899Z,3.00
2018-01-15T12:29:22.968Z,3.00
2018-01-15T12:32:34.125Z,3.10
2018-01-15T12:35:44.848Z,3.20
2018-01-15T12:38:57.118Z,3.30
2018-01-15T12:42:09.410Z,3.20
2018-01-15T12:45:20.370Z,3.40
2018-01-15T12:48:30.451Z,3.40
2018-01-15T12:51:41.034Z,3.40
2018-01-15T12:54:51.668Z,3.40
2018-01-15T12:58:03.100Z,3.50
2018-01-15T13:04:25.541Z,3.50
2018-01-15T13:07:48.341Z,3.70
2018-01-15T13:10:59.022Z,3.70
2018-01-15T13:14:08.937Z,3.80
2018-01-15T13:17:19.401Z,3.80
2018-01-15T13:20:32.049Z,3.70
2018-01-15T13:23:41.836Z,3.70
2018-01-15T13:26:51.884Z,3.60
2018-01-15T13:30:01.893Z,3.70
2018-01-15T13:33:12.633Z,3.60
2018-01-15T13:36:23.354Z,3.50
2018-01-15T13:39:33.529Z,3.50
2018-01-15T13:42:43.586Z,3.40
2018-01-15T13:45:53.936Z,3.50
2018-01-15T13:49:05.664Z,3.60
2018-01-15T13:52:16.437Z,3.60
2018-01-15T13:55:27.188Z,3.50
2018-01-15T13:58:41.334Z,3.70
2018-01-15T14:01:52.039Z,3.70
2018-01-15T14:05:02.692Z,3.90
2018-01-15T14:08:13.901Z,3.90
2018-01-15T14:11:23.718Z,3.90
2018-01-15T14:14:33.887Z,4.00
2018-01-15T14:17:44.003Z,4.10
2018-01-15T14:20:54.618Z,4.00
2018-01-15T14:24:05.408Z,4.40
2018-01-15T14:27:15.339Z,4.60
2018-01-15T14:30:25.767Z,4.80
2018-01-15T14:33:36.003Z,4.40
2018-01-15T14:36:47.973Z,4.40
2018-01-15T14:39:58.553Z,4.40
2018-01-15T14:43:08.754Z,4.40
2018-01-15T14:46:19.343Z,3.70
2018-01-15T14:49:30.165Z,3.30
2018-01-15T14:52:40.213Z,3.40
2018-01-15T14:55:50.455Z,3.10
2018-01-15T14:59:01.412Z,2.90
2018-01-15T15:02:13.664Z,2.80
2018-01-15T15:05:24.186Z,2.80
2018-01-15T15:08:37.253Z,2.70
2018-01-15T15:11:47.043Z,2.60
2018-01-15T15:14:59.261Z,2.60
2018-01-15T15:18:10.244Z,2.40
2018-01-15T15:21:20.722Z,2.40
2018-01-15T15:24:30.834Z,2.40
2018-01-15T15:27:41.595Z,2.30
2018-01-15T15:30:51.740Z,2.30
2018-01-15T15:34:01.646Z,2.30
2018-01-15T15:37:11.636Z,2.30
2018-01-15T15:40:22.459Z,2.10
2018-01-15T15:43:33.454Z,2.10
2018-01-15T15:46:44.337Z,2.10
2018-01-15T15:49:54.743Z,2.10
2018-01-15T15:53:05.595Z,2.00
2018-01-15T15:56:15.927Z,2.00
2018-01-15T15:59:25.952Z,2.00
2018-01-15T16:02:36.951Z,2.00
2018-01-15T16:05:47.850Z,2.00
2018-01-15T16:08:58.649Z,2.00
2018-01-15T16:12:08.983Z,1.90
2018-01-15T16:15:18.931Z,2.00
2018-01-15T16:18:28.869Z,2.00
2018-01-15T16:21:39.163Z,1.90
2018-01-15T16:24:50.026Z,2.00
2018-01-15T16:27:59.842Z,2.00
2018-01-15T16:31:09.949Z,2.00
2018-01-15T16:37:31.861Z,2.00
2018-01-15T16:40:41.675Z,2.00
2018-01-15T16:43:51.681Z,2.00
2018-01-15T16:47:01.979Z,2.00
2018-01-15T16:50:18.159Z,2.00
2018-01-15T16:53:28.961Z,1.90
2018-01-15T16:56:39.169Z,2.10
2018-01-15T16:59:48.984Z,2.10
2018-01-15T17:02:59.974Z,2.20
2018-01-15T17:06:10.655Z,2.10
2018-01-15T17:09:20.737Z,2.10
2018-01-15T17:12:30.896Z,2.20
2018-01-15T17:15:40.993Z,2.20
2018-01-15T17:18:50.912Z,2.20
2018-01-15T17:22:01.197Z,2.30
2018-01-15T17:25:11.721Z,2.20
2018-01-15T17:28:22.787Z,2.10
2018-01-15T17:31:33.197Z,2.10
2018-01-15T17:34:43.056Z,2.10
2018-01-15T17:37:54.021Z,2.10
2018-01-15T17:41:04.487Z,2.10
2018-01-15T17:44:15.507Z,2.10
2018-01-15T17:47:25.899Z,2.10
2018-01-15T17:50:36.852Z,2.10
2018-01-15T17:53:48.215Z,2.00
2018-01-15T17:56:58.141Z,2.00
2018-01-15T18:00:08.497Z,2.10
2018-01-15T18:03:19.183Z,2.00
2018-01-15T18:06:29.070Z,2.00
2018-01-15T18:09:39.281Z,2.00
2018-01-15T18:12:49.844Z,2.00
2018-01-15T18:16:01.288Z,2.00
2018-01-15T18:19:12.259Z,1.90
2018-01-15T18:22:23.218Z,1.90
2018-01-15T18:25:33.835Z,1.90
2018-01-15T18:28:44.793Z,1.90
2018-01-15T18:31:55.915Z,1.80
2018-01-15T18:35:06.794Z,1.80
2018-01-15T18:38:17.294Z,1.80
2018-01-15T18:41:28.793Z,1.90
2018-01-15T18:44:39.131Z,1.90
2018-01-15T18:47:49.063Z,1.90
2018-01-15T18:50:58.962Z,1.90
2018-01-15T18:54:08.887Z,1.80
2018-01-15T18:57:18.887Z,1.90
2018-01-15T19:00:29.958Z,1.80
2018-01-15T19:03:40.292Z,1.90
2018-01-15T19:06:50.844Z,1.90
2018-01-15T19:10:01.204Z,1.80
2018-01-15T19:13:11.381Z,1.90
2018-01-15T19:16:21.491Z,1.90
2018-01-15T19:19:32.771Z,1.90
2018-01-15T19:22:43.579Z,1.90
2018-01-15T19:25:54.243Z,1.90
2018-01-15T19:29:04.237Z,1.90
2018-01-15T19:32:14.923Z,1.90
2018-01-15T19:35:26.617Z,1.90
2018-01-15T19:38:36.912Z,1.90
2018-01-15T19:42:03.471Z,1.90
2018-01-15T19:45:19.466Z,1.90
2018-01-15T19:48:35.413Z,1.90
2018-01-15T19:51:52.228Z,2.00
2018-01-15T19:55:09.156Z,2.10
2018-01-15T19:58:24.828Z,2.00
2018-01-15T20:01:40.948Z,2.10
2018-01-15T20:04:56.957Z,2.10
2018-01-15T20:08:13.154Z,2.00
2018-01-15T20:11:23.916Z,2.00
2018-01-15T20:14:34.461Z,2.00
2018-01-15T20:17:45.503Z,1.90
2018-01-15T20:20:55.463Z,1.90
2018-01-15T20:24:05.648Z,1.80
2018-01-15T20:27:19.077Z,1.80
2018-01-15T20:30:30.410Z,1.80
2018-01-15T20:33:42.048Z,1.70
2018-01-15T20:36:52.537Z,1.70
2018-01-15T20:40:02.859Z,1.70
2018-01-15T20:43:13.890Z,1.70
2018-01-15T20:46:24.703Z,1.70
2018-01-15T20:49:35.375Z,1.70
2018-01-15T20:52:46.109Z,1.70
2018-01-15T20:55:56.377Z,1.70
2018-01-15T20:59:07.254Z,1.70
2018-01-15T21:02:17.341Z,1.70
2018-01-15T21:05:27.504Z,1.70
2018-01-15T21:08:38.469Z,1.70
2018-01-15T21:11:49.058Z,1.70
2018-01-15T21:14:59.782Z,1.70
2018-01-15T21:18:10.272Z,1.70
2018-01-15T21:21:20.382Z,1.70
2018-01-15T21:24:31.111Z,1.80
2018-01-15T21:27:41.621Z,1.70
2018-01-15T21:30:51.939Z,1.70
2018-01-15T21:34:02.815Z,1.80
2018-01-15T21:37:12.991Z,1.70
2018-01-15T21:40:23.092Z,1.70
2018-01-15T21:43:33.003Z,1.80
2018-01-15T21:46:43.204Z,1.80
2018-01-15T21:49:54.011Z,1.90
2018-01-15T21:53:04.774Z,2.00
2018-01-15T21:56:15.090Z,2.10
2018-01-15T21:59:25.620Z,2.20
2018-01-15T22:02:35.528Z,2.20
2018-01-15T22:05:45.656Z,2.10
2018-01-15T22:08:55.561Z,2.20
2018-01-15T22:12:06.292Z,2.20
2018-01-15T22:15:16.278Z,2.20
2018-01-15T22:18:27.237Z,2.20
2018-01-15T22:21:37.460Z,2.20
2018-01-15T22:24:47.279Z,2.20
2018-01-15T22:27:58.265Z,2.20
2018-01-15T22:31:08.947Z,2.10
2018-01-15T22:34:19.565Z,2.10
2018-01-15T22:37:29.988Z,2.00
2018-01-15T22:40:41.708Z,1.90
2018-01-15T22:43:51.569Z,1.90
2018-01-15T22:47:01.452Z,1.90
2018-01-15T22:50:11.597Z,2.00
2018-01-15T22:53:21.578Z,2.00
2018-01-15T22:56:33.098Z,1.90
2018-01-15T22:59:43.360Z,1.90
2018-01-15T23:02:54.803Z,1.90
2018-01-15T23:06:04.946Z,1.90
2018-01-15T23:09:15.729Z,1.90
2018-01-15T23:12:26.105Z,1.90
2018-01-15T23:15:36.725Z,1.90
2018-01-15T23:18:47.457Z,1.90
2018-01-15T23:21:59.450Z,1.90
2018-01-15T23:25:10.123Z,1.90
2018-01-15T23:28:20.147Z,1.90
2018-01-15T23:31:30.130Z,1.90
2018-01-15T23:34:40.083Z,2.00
2018-01-15T23:37:49.858Z,2.00
2018-01-15T23:40:59.936Z,2.00
2018-01-15T23:44:11.499Z,2.10
2018-01-15T23:47:21.844Z,2.00
2018-01-15T23:50:32.419Z,2.10
2018-01-15T23:53:43.210Z,2.10
2018-01-15T23:56:54.753Z,2.10
